Time;durP1;ratioP1;P1;durP2;ratioP2;P2;SDS_P1;SDS_P2;PMS_P1;PMS_P2;Temp;Humidity;BMP_temperature;BMP_pressure;BME280_temperature;BME280_humidity;BME280_pressure;Samples;Min_cycle;Max_cycle;Signal;HPM_P1;HPM_P2
2022/06/25 00:02:20;;;;;;;;;;;;;;;19.54;57.74609;100798;;;;-83
2022/06/25 00:07:20;;;;;;;;;;;;;;;19.5;58.18359;100797.8;;;;-83
2022/06/25 00:17:20;;;;;;;;;;;;;;;19.36;59.17676;100802.6;;;;-83
2022/06/25 00:22:19;;;;;;;;;;;;;;;19.3;58.67969;100799.9;;;;-83
2022/06/25 00:24:48;;;;;;;7;4.2;;;;;;;;;;;;;-84
2022/06/25 00:27:19;;;;;;;;;;;;;;;19.27;58.76758;100803.5;;;;-84
2022/06/25 00:32:19;;;;;;;;;;;;;;;19.23;58;100804;;;;-83
2022/06/25 00:37:20;;;;;;;;;;;;;;;19.15;58.5127;100801.8;;;;-83
2022/06/25 00:42:20;;;;;;;;;;;;;;;19.11;58.67676;100804.8;;;;-82
2022/06/25 00:47:19;;;;;;;;;;;;;;;19.05;58.51172;100799.9;;;;-84
2022/06/25 00:52:22;;;;;;;;;;;;;;;19.02;59.5752;100806.3;;;;-84
2022/06/25 00:54:53;;;;;;;6;3.6;;;;;;;;;;;;;-85
2022/06/25 00:57:24;;;;;;;;;;;;;;;18.99;58.92285;100812.9;;;;-82
2022/06/25 01:02:21;;;;;;;;;;;;;;;18.94;58.74512;100821.5;;;;-82
2022/06/25 01:07:19;;;;;;;;;;;;;;;18.88;59.10156;100830.7;;;;-83
2022/06/25 01:12:23;;;;;;;;;;;;;;;18.85;59.50684;100836.2;;;;-84
2022/06/25 01:17:19;;;;;;;;;;;;;;;18.8;59.35156;100832.3;;;;-85
2022/06/25 01:22:19;;;;;;;;;;;;;;;18.76;60.02637;100832.7;;;;-84
2022/06/25 01:24:53;;;;;;;4.8;3.1;;;;;;;;;;;;;-83
2022/06/25 01:27:22;;;;;;;;;;;;;;;18.72;60.23828;100835.5;;;;-82
2022/06/25 01:32:19;;;;;;;;;;;;;;;18.65;60.72656;100841.1;;;;-83
2022/06/25 01:37:21;;;;;;;;;;;;;;;18.62;61.0293;100847.8;;;;-84
2022/06/25 01:47:19;;;;;;;;;;;;;;;18.56;61.36035;100858.3;;;;-78
2022/06/25 01:52:20;;;;;;;;;;;;;;;18.54;61.65234;100862.6;;;;-76
2022/06/25 01:55:00;;;;;;;5.2;3.1;;;;;;;;;;;;;-78
2022/06/25 01:57:19;;;;;;;;;;;;;;;18.52;61.41211;100861.3;;;;-78
2022/06/25 02:02:27;;;;;;;;;;;;;;;18.49;61.10254;100860.7;;;;-77
2022/06/25 02:07:25;;;;;;;;;;;;;;;18.43;61.76074;100863;;;;-77
2022/06/25 03:15:00;;;;;;;;;;;;;;;18.29;62.21875;100926.4;;;;-83
2022/06/25 03:17:34;;;;;;;;;;;;;;;17.98;62.45703;100930.9;;;;-84
2022/06/25 03:22:38;;;;;;;;;;;;;;;17.94;62.11133;100931.5;;;;-83
2022/06/25 03:25:02;;;;;;;5.2;3.3;;;;;;;;;;;;;-84
2022/06/25 03:27:38;;;;;;;;;;;;;;;17.91;62.83105;100932.9;;;;-84
2022/06/25 03:32:38;;;;;;;;;;;;;;;17.88;62.57813;100943.5;;;;-84
2022/06/25 03:37:38;;;;;;;;;;;;;;;17.86;63.23242;100949.7;;;;-84
2022/06/25 03:42:36;;;;;;;;;;;;;;;17.85;63.89746;100956;;;;-83
2022/06/25 03:47:34;;;;;;;;;;;;;;;17.83;64.38086;100952.3;;;;-85
2022/06/25 03:52:45;;;;;;;;;;;;;;;17.85;63.875;100956.1;;;;-83
2022/06/25 03:55:08;;;;;;;6.1;3.7;;;;;;;;;;;;;-83
2022/06/25 03:57:33;;;;;;;;;;;;;;;17.85;64.0791;100955.4;;;;-84
2022/06/25 04:02:34;;;;;;;;;;;;;;;17.86;64.3623;100961.6;;;;-84
2022/06/25 04:07:35;;;;;;;;;;;;;;;17.89;64.55859;100952.5;;;;-82
2022/06/25 04:17:33;;;;;;;;;;;;;;;17.98;64.85449;100958.8;;;;-83
2022/06/25 04:22:36;;;;;;;;;;;;;;;18.04;64.64941;100956;;;;-83
2022/06/25 04:25:09;;;;;;;7.4;3.4;;;;;;;;;;;;;-84
2022/06/25 04:32:43;;;;;;;;;;;;;;;18.23;64.41504;100968.8;;;;-83
2022/06/25 04:37:52;;;;;;;;;;;;;;;18.34;64.20508;100973.4;;;;-84
2022/06/25 04:42:32;;;;;;;;;;;;;;;18.44;64.46875;100978.6;;;;-84
2022/06/25 04:47:40;;;;;;;;;;;;;;;18.51;64.18457;100983.7;;;;-86
2022/06/25 04:52:32;;;;;;;;;;;;;;;18.54;64.63184;100986.3;;;;-83
2022/06/25 04:55:10;;;;;;;6;3.1;;;;;;;;;;;;;-83
2022/06/25 04:57:34;;;;;;;;;;;;;;;18.59;64.35547;100995.6;;;;-84
2022/06/25 05:02:50;;;;;;;;;;;;;;;18.63;64.55273;100996.5;;;;-84
2022/06/25 05:07:33;;;;;;;;;;;;;;;18.69;64.05371;100998.2;;;;-84
2022/06/25 05:17:35;;;;;;;;;;;;;;;18.9;64.13965;101011.1;;;;-83
2022/06/25 05:22:33;;;;;;;;;;;;;;;19.01;63.83789;101019.4;;;;-84
2022/06/25 05:25:12;;;;;;;5.7;2.7;;;;;;;;;;;;;-84
2022/06/25 05:27:34;;;;;;;;;;;;;;;19.11;63.52148;101021.3;;;;-85
2022/06/25 05:32:35;;;;;;;;;;;;;;;19.15;63.33691;101025.1;;;;-85
2022/06/25 05:37:41;;;;;;;;;;;;;;;19.18;63.05566;101034.9;;;;-86
2022/06/25 05:42:36;;;;;;;;;;;;;;;19.19;62.92188;101033.4;;;;-82
2022/06/25 05:47:44;;;;;;;;;;;;;;;19.2;62.49219;101040.1;;;;-85
2022/06/25 05:52:34;;;;;;;;;;;;;;;19.28;62.78809;101053.2;;;;-84
2022/06/25 05:55:18;;;;;;;6.8;2.8;;;;;;;;;;;;;-83
2022/06/25 05:57:37;;;;;;;;;;;;;;;19.54;63.4834;101057.5;;;;-85
2022/06/25 06:02:33;;;;;;;;;;;;;;;20.04;62.08789;101059.2;;;;-83
2022/06/25 06:07:32;;;;;;;;;;;;;;;20.57;61.0918;101061.6;;;;-83
2022/06/25 06:12:32;;;;;;;;;;;;;;;21.2;59.78516;101057.1;;;;-86
2022/06/25 06:17:38;;;;;;;;;;;;;;;21.69;58.82422;101071.2;;;;-85
2022/06/25 06:22:42;;;;;;;;;;;;;;;22.16;57.87891;101072.3;;;;-85
2022/06/25 06:25:17;;;;;;;5.6;2.7;;;;;;;;;;;;;-81
2022/06/25 06:27:35;;;;;;;;;;;;;;;22.73;56.81934;101071.4;;;;-85
2022/06/25 06:32:35;;;;;;;;;;;;;;;23.36;55.6709;101074.3;;;;-85
2022/06/25 06:37:35;;;;;;;;;;;;;;;23.86;54.51563;101075.5;;;;-83
2022/06/25 06:42:34;;;;;;;;;;;;;;;24.33;53.64063;101065;;;;-85
2022/06/25 06:47:33;;;;;;;;;;;;;;;24.87;52.48438;101066.6;;;;-86
2022/06/25 06:52:33;;;;;;;;;;;;;;;25.25;51.45508;101070.3;;;;-84
2022/06/25 06:55:19;;;;;;;6.8;2.3;;;;;;;;;;;;;-84
2022/06/25 06:57:41;;;;;;;;;;;;;;;25.64;50.63379;101067.9;;;;-85
2022/06/25 07:02:32;;;;;;;;;;;;;;;25.78;50.02441;101072.6;;;;-84
2022/06/25 07:07:34;;;;;;;;;;;;;;;25.66;50.03418;101080.1;;;;-86
2022/06/25 07:12:32;;;;;;;;;;;;;;;25.54;50.20508;101089.4;;;;-84
2022/06/25 07:17:32;;;;;;;;;;;;;;;25.39;50.28125;101094.9;;;;-84
2022/06/25 07:22:35;;;;;;;;;;;;;;;25.22;50.35449;101089.8;;;;-84
2022/06/25 07:25:24;;;;;;;5.4;2.4;;;;;;;;;;;;;-85
2022/06/25 07:27:38;;;;;;;;;;;;;;;25.04;50.33496;101096.7;;;;-84
2022/06/25 07:32:35;;;;;;;;;;;;;;;24.92;50.4707;101101;;;;-84
2022/06/25 07:37:47;;;;;;;;;;;;;;;24.78;50.63965;101107.4;;;;-85
2022/06/25 07:42:41;;;;;;;;;;;;;;;24.65;50.84375;101109.5;;;;-84
2022/06/25 07:47:38;;;;;;;;;;;;;;;24.53;51.36133;101114;;;;-86
2022/06/25 07:52:35;;;;;;;;;;;;;;;24.43;51.60352;101115.1;;;;-84
2022/06/25 07:55:31;;;;;;;5.3;3;;;;;;;;;;;;;-85
2022/06/25 07:57:33;;;;;;;;;;;;;;;24.27;51.76855;101125.8;;;;-85
2022/06/25 08:02:41;;;;;;;;;;;;;;;24.18;51.86133;101128.6;;;;-85
2022/06/25 08:07:50;;;;;;;;;;;;;;;24.18;52.10449;101132.5;;;;-84
2022/06/25 08:12:39;;;;;;;;;;;;;;;24.24;51.88086;101149.2;;;;-84
2022/06/25 08:17:40;;;;;;;;;;;;;;;24.25;51.62793;101144.9;;;;-84
2022/06/25 08:22:38;;;;;;;;;;;;;;;24.12;51.42871;101155.6;;;;-85
2022/06/25 08:25:31;;;;;;;5.5;3.1;;;;;;;;;;;;;-83
2022/06/25 08:27:49;;;;;;;;;;;;;;;23.9;52.00195;101165.4;;;;-85
2022/06/25 08:32:34;;;;;;;;;;;;;;;23.64;52.52246;101171.9;;;;-83
2022/06/25 08:37:46;;;;;;;;;;;;;;;23.42;53.09473;101178.5;;;;-85
2022/06/25 08:42:35;;;;;;;;;;;;;;;23.2;53.4834;101176.8;;;;-84
2022/06/25 08:47:35;;;;;;;;;;;;;;;23.04;53.87695;101180.2;;;;-85
2022/06/25 08:52:41;;;;;;;;;;;;;;;22.91;53.9873;101188.8;;;;-83
2022/06/25 08:55:38;;;;;;;4.9;1.6;;;;;;;;;;;;;-83
2022/06/25 08:57:34;;;;;;;;;;;;;;;22.79;54.07617;101192.4;;;;-85
2022/06/25 09:02:39;;;;;;;;;;;;;;;22.69;54.06348;101192.9;;;;-82
2022/06/25 09:07:51;;;;;;;;;;;;;;;22.66;53.8418;101191.9;;;;-83
2022/06/25 09:12:38;;;;;;;;;;;;;;;22.78;54.33789;101185.4;;;;-83
2022/06/25 09:18:04;;;;;;;;;;;;;;;;;;;;;
2022/06/25 09:22:35;;;;;;;;;;;;;;;23.09;53.69824;101195.3;;;;-87
2022/06/25 09:25:41;;;;;;;3.5;1;;;;;;;;;;;;;-79
2022/06/25 09:27:43;;;;;;;;;;;;;;;23.06;53.24805;101194.4;;;;-78
2022/06/25 09:32:48;;;;;;;;;;;;;;;22.95;53.16602;101207.4;;;;-85
2022/06/25 09:37:38;;;;;;;;;;;;;;;22.82;53.4707;101204.9;;;;-86
2022/06/25 09:42:45;;;;;;;;;;;;;;;22.65;53.77246;101200.3;;;;-85
2022/06/25 09:47:33;;;;;;;;;;;;;;;22.57;53.69336;101200.3;;;;-85
2022/06/25 09:52:39;;;;;;;;;;;;;;;22.62;54.22656;101200.5;;;;-86
2022/06/25 09:55:40;;;;;;;3.5;1.1;;;;;;;;;;;;;-86
2022/06/25 09:57:51;;;;;;;;;;;;;;;22.94;54.24316;101199.5;;;;-84
2022/06/25 10:02:38;;;;;;;;;;;;;;;23.34;53.30469;101198.3;;;;-82
2022/06/25 10:12:35;;;;;;;;;;;;;;;24.17;51.60742;101200.8;;;;-84
2022/06/25 10:17:33;;;;;;;;;;;;;;;24.55;50.55664;101199.3;;;;-76
2022/06/25 10:22:33;;;;;;;;;;;;;;;24.79;49.79883;101205.8;;;;-84
2022/06/25 10:25:43;;;;;;;3.9;1.2;;;;;;;;;;;;;-85
2022/06/25 10:27:41;;;;;;;;;;;;;;;24.88;49.08301;101208.7;;;;-86
2022/06/25 10:32:34;;;;;;;;;;;;;;;24.88;49.10547;101211.2;;;;-84
2022/06/25 10:37:53;;;;;;;;;;;;;;;24.91;49.12012;101205.7;;;;-84
2022/06/25 10:47:44;;;;;;;;;;;;;;;25.13;48.77539;101213.1;;;;-83
2022/06/25 10:52:32;;;;;;;;;;;;;;;25.21;48.56543;101221.8;;;;-85
2022/06/25 10:55:55;;;;;;;5.3;1.3;;;;;;;;;;;;;-84
2022/06/25 10:57:46;;;;;;;;;;;;;;;25.2;47.92871;101232.1;;;;-85
2022/06/25 11:02:43;;;;;;;;;;;;;;;25.09;48.02051;101235.3;;;;-86
2022/06/25 11:07:39;;;;;;;;;;;;;;;24.95;48.08691;101247.3;;;;-87
2022/06/25 11:12:39;;;;;;;;;;;;;;;24.83;48.18945;101257.5;;;;-87
2022/06/25 11:17:34;;;;;;;;;;;;;;;24.67;48.27539;101261.8;;;;-86
2022/06/25 11:23:02;;;;;;;;;;;;;;;;;;;;;
2022/06/25 11:42:50;;;;;;;;;;;;;;;24.66;48.68945;101270.1;;;;-85
2022/06/25 11:47:45;;;;;;;;;;;;;;;24.93;48.24512;101274.5;;;;-86
2022/06/25 11:52:34;;;;;;;;;;;;;;;25.17;47.69434;101273.9;;;;-83
2022/06/25 11:56:07;;;;;;;5.3;1.2;;;;;;;;;;;;;-86
2022/06/25 11:57:44;;;;;;;;;;;;;;;25.45;47.40039;101263.1;;;;-86
2022/06/25 12:07:27;;;;;;;;;;;;;;;26.28;46.94336;101258.9;;;;-78
2022/06/25 12:12:33;;;;;;;;;;;;;;;26.72;46.58301;101261.3;;;;-83
2022/06/25 12:18:25;;;;;;;;;;;;;;;27.48;46.01172;101257.3;;;;-83
2022/06/25 12:21:47;;;;;;;;;;;;;;;26.49;42.02637;101261;;;;-74
2022/06/25 12:25:54;;;;;;;4;1.4;;;;;;;;;;;;;-75
2022/06/25 12:26:54;;;;;;;;;;;;;;;26.65;44.60449;101271.7;;;;-79
2022/06/25 12:31:56;;;;;;;;;;;;;;;27.49;43.7002;101269.3;;;;-78
2022/06/25 12:36:48;;;;;;;;;;;;;;;28.05;43.08984;101270.2;;;;-75
2022/06/25 12:41:53;;;;;;;;;;;;;;;28.48;44.15723;101270.3;;;;-78
2022/06/25 12:46:57;;;;;;;;;;;;;;;28.91;42.63574;101261.7;;;;-81
2022/06/25 12:51:47;;;;;;;;;;;;;;;29.44;43.02441;101255.6;;;;-78
2022/06/25 12:56:00;;;;;;;5;1.3;;;;;;;;;;;;;-78
2022/06/25 12:56:56;;;;;;;;;;;;;;;29.88;42.79785;101248.9;;;;-77
2022/06/25 13:01:48;;;;;;;;;;;;;;;30.09;43.78809;101244.5;;;;-77
2022/06/25 13:06:47;;;;;;;;;;;;;;;30.38;43.19629;101249.5;;;;-78
2022/06/25 13:11:47;;;;;;;;;;;;;;;30.63;42.54004;101250.4;;;;-77
2022/06/25 13:16:47;;;;;;;;;;;;;;;30.82;42.96777;101257.2;;;;-77
2022/06/25 13:21:47;;;;;;;;;;;;;;;30.96;42.41895;101250;;;;-78
2022/06/25 13:26:03;;;;;;;3.5;1.5;;;;;;;;;;;;;-78
2022/06/25 13:26:47;;;;;;;;;;;;;;;30.94;41.99414;101252.3;;;;-79
2022/06/25 13:31:47;;;;;;;;;;;;;;;30.9;41.47559;101244;;;;-78
2022/06/25 13:36:47;;;;;;;;;;;;;;;30.95;40.75391;101226.1;;;;-78
2022/06/25 13:41:50;;;;;;;;;;;;;;;31.09;41.03516;101238.3;;;;-78
2022/06/25 13:46:47;;;;;;;;;;;;;;;31.38;38.57324;101235.5;;;;-78
2022/06/25 13:51:47;;;;;;;;;;;;;;;31.72;37.62695;101231.7;;;;-78
2022/06/25 13:56:08;;;;;;;5.7;1.4;;;;;;;;;;;;;-78
2022/06/25 13:56:47;;;;;;;;;;;;;;;31.98;39.22363;101233.6;;;;-77
2022/06/25 14:01:50;;;;;;;;;;;;;;;32.07;38.41992;101228.1;;;;-78
2022/06/25 14:06:47;;;;;;;;;;;;;;;32.28;37.13184;101230.4;;;;-75
2022/06/25 14:11:47;;;;;;;;;;;;;;;32.46;37.19336;101224.5;;;;-75
2022/06/25 14:16:49;;;;;;;;;;;;;;;32.63;36.19434;101226.3;;;;-76
2022/06/25 14:21:49;;;;;;;;;;;;;;;32.09;37.92676;101232.5;;;;-77
2022/06/25 14:26:12;;;;;;;5.7;1.4;;;;;;;;;;;;;-77
2022/06/25 14:26:47;;;;;;;;;;;;;;;32.47;37.39453;101236.2;;;;-78
2022/06/25 14:31:47;;;;;;;;;;;;;;;32.55;38.35449;101232.1;;;;-80
2022/06/25 14:46:47;;;;;;;;;;;;;;;32.75;37.95996;101230.7;;;;-79
2022/06/25 14:51:48;;;;;;;;;;;;;;;32.63;37.87891;101223;;;;-79
2022/06/25 14:56:17;;;;;;;5.4;1.7;;;;;;;;;;;;;-79
2022/06/25 14:56:47;;;;;;;;;;;;;;;32.35;37.10254;101221.7;;;;-78
2022/06/25 15:01:50;;;;;;;;;;;;;;;31.97;37.58984;101221.2;;;;-77
2022/06/25 15:06:48;;;;;;;;;;;;;;;31.55;38.41113;101210.4;;;;-78
2022/06/25 15:11:47;;;;;;;;;;;;;;;31.13;38.88086;101206.5;;;;-80
2022/06/25 15:16:47;;;;;;;;;;;;;;;30.76;39.35352;101199.5;;;;-77
2022/06/25 15:21:49;;;;;;;;;;;;;;;30.46;39.65527;101207.3;;;;-80
2022/06/25 15:26:23;;;;;;;4.3;1.7;;;;;;;;;;;;;-78
2022/06/25 15:26:47;;;;;;;;;;;;;;;30.21;40.00879;101201;;;;-79
2022/06/25 15:31:47;;;;;;;;;;;;;;;29.97;40.30273;101197;;;;-78
2022/06/25 15:36:49;;;;;;;;;;;;;;;29.72;40.49121;101202.6;;;;-77
2022/06/25 15:41:47;;;;;;;;;;;;;;;29.47;40.95996;101199.9;;;;-79
2022/06/25 15:46:47;;;;;;;;;;;;;;;29.25;41.27832;101200;;;;-77
2022/06/25 15:51:47;;;;;;;;;;;;;;;29.05;41.57422;101194.1;;;;-78
2022/06/25 15:56:26;;;;;;;4.7;1.7;;;;;;;;;;;;;-79
2022/06/25 15:56:47;;;;;;;;;;;;;;;28.81;41.86914;101194.1;;;;-79
2022/06/25 16:01:47;;;;;;;;;;;;;;;28.56;42.13672;101178.2;;;;-77
2022/06/25 16:06:47;;;;;;;;;;;;;;;28.33;42.37207;101171;;;;-78
2022/06/25 16:11:47;;;;;;;;;;;;;;;28.1;42.52441;101175.5;;;;-78
2022/06/25 16:16:49;;;;;;;;;;;;;;;27.86;42.44336;101183.2;;;;-78
2022/06/25 16:21:49;;;;;;;;;;;;;;;27.64;42.77344;101182.1;;;;-78
2022/06/25 16:26:31;;;;;;;3.7;1.6;;;;;;;;;;;;;-77
2022/06/25 16:26:48;;;;;;;;;;;;;;;27.45;42.87012;101171.3;;;;-77
2022/06/25 16:31:47;;;;;;;;;;;;;;;27.29;43.00781;101162.5;;;;-78
2022/06/25 16:36:47;;;;;;;;;;;;;;;27.2;43.18359;101166.1;;;;-78
2022/06/25 16:41:48;;;;;;;;;;;;;;;27.14;43.22559;101156.9;;;;-77
2022/06/25 16:46:48;;;;;;;;;;;;;;;27.09;43.23145;101163.7;;;;-78
2022/06/25 16:51:49;;;;;;;;;;;;;;;27.03;43.22559;101164.1;;;;-77
2022/06/25 16:56:35;;;;;;;4.9;1.6;;;;;;;;;;;;;-77
2022/06/25 16:56:47;;;;;;;;;;;;;;;26.93;43.21582;101165.6;;;;-78
2022/06/25 17:01:48;;;;;;;;;;;;;;;26.8;43.27344;101161.7;;;;-76
2022/06/25 17:06:48;;;;;;;;;;;;;;;26.64;43.22266;101163.3;;;;-78
2022/06/25 17:14:09;;;;;;;;;;;;;;;26.65;42.78418;101166.4;;;;-86
2022/06/25 17:17:09;;;;;;;;;;;;;;;26.55;42.73926;101173.2;;;;-85
2022/06/25 17:20:18;;;;;;;;;;;;;;;26.17;43.23633;101188.6;;;;-84
2022/06/25 17:25:02;;;;;;;;;;;;;;;25.92;43.47949;101204.2;;;;-84
2022/06/25 17:26:50;;;;;;;4.2;1.7;;;;;;;;;;;;;-85
2022/06/25 17:30:08;;;;;;;;;;;;;;;25.61;43.63379;101215.4;;;;-87
2022/06/25 18:57:16;;;;;;;5.1;1.6;;;;;;;;;;;;;-85
2022/06/25 18:59:15;;;;;;;;;;;;;;;21.52;50.49023;101257;;;;-84
2022/06/25 19:04:09;;;;;;;;;;;;;;;21.36;50.96387;101257.7;;;;-84
2022/06/25 19:09:08;;;;;;;;;;;;;;;21.22;51.28027;101273.4;;;;-85
2022/06/25 19:17:22;;;;;;;;;;;;;;;21.24;51.61523;101308.5;;;;-84
2022/06/25 19:21:33;;;;;;;;;;;;;;;20.91;52.37598;101308;;;;-81
2022/06/25 19:26:39;;;;;;;;;;;;;;;20.78;52.62305;101299.8;;;;-82
2022/06/25 19:27:22;;;;;;;3.9;1.7;;;;;;;;;;;;;-82
2022/06/25 19:31:44;;;;;;;;;;;;;;;20.65;53.08691;101311.5;;;;-82
2022/06/25 19:36:41;;;;;;;;;;;;;;;20.52;53.33398;101252.2;;;;-81
2022/06/25 19:41:52;;;;;;;;;;;;;;;20.38;53.56836;101282;;;;-82
2022/06/25 19:47:03;;;;;;;;;;;;;;;20.53;53.28809;101260.9;;;;-83
2022/06/25 19:51:48;;;;;;;;;;;;;;;20.19;54.07031;101274.7;;;;-83
2022/06/25 19:56:47;;;;;;;;;;;;;;;20.08;54.06738;101268.7;;;;-82
2022/06/25 19:57:06;;;;;;;4.8;1.9;;;;;;;;;;;;;-82
2022/06/25 20:06:44;;;;;;;;;;;;;;;19.9;54.55859;101269.6;;;;-84
2022/06/25 20:11:53;;;;;;;;;;;;;;;19.8;54.72852;101267.7;;;;-83
2022/06/25 20:16:47;;;;;;;;;;;;;;;19.71;54.94531;101251.6;;;;-82
2022/06/25 20:21:52;;;;;;;;;;;;;;;;;;;;;
2022/06/25 20:26:45;;;;;;;;;;;;;;;;;;;;;
2022/06/25 20:27:05;;;;;;;;;;;;;;;;;;;;;
2022/06/25 20:31:48;;;;;;;;;;;;;;;;;;;;;
2022/06/25 20:36:50;;;;;;;;;;;;;;;;;;;;;
2022/06/25 20:41:46;;;;;;;;;;;;;;;;;;;;;
2022/06/25 20:46:44;;;;;;;;;;;;;;;;;;;;;
2022/06/25 20:51:53;;;;;;;;;;;;;;;;;;;;;
2022/06/25 20:56:47;;;;;;;;;;;;;;;;;;;;;
2022/06/25 20:57:06;;;;;;;;;;;;;;;;;;;;;
2022/06/25 21:01:42;;;;;;;;;;;;;;;;;;;;;
2022/06/25 21:11:42;;;;;;;;;;;;;;;;;;;;;
2022/06/25 21:16:46;;;;;;;;;;;;;;;;;;;;;
2022/06/25 21:21:43;;;;;;;;;;;;;;;;;;;;;
2022/06/25 21:26:45;;;;;;;;;;;;;;;;;;;;;
2022/06/25 21:27:01;;;;;;;;;;;;;;;;;;;;;
2022/06/25 21:31:44;;;;;;;;;;;;;;;;;;;;;
2022/06/25 21:36:43;;;;;;;;;;;;;;;;;;;;;
2022/06/25 21:41:47;;;;;;;;;;;;;;;;;;;;;
2022/06/25 21:46:43;;;;;;;;;;;;;;;;;;;;;
2022/06/25 21:51:53;;;;;;;;;;;;;;;;;;;;;
2022/06/25 21:56:42;;;;;;;;;;;;;;;;;;;;;
2022/06/25 21:57:01;;;;;;;3.6;1.9;;;;;;;;;;;;;-81
2022/06/25 22:01:45;;;;;;;;;;;;;;;;;;;;;
2022/06/25 22:06:42;;;;;;;;;;;;;;;;;;;;;
2022/06/25 22:11:42;;;;;;;;;;;;;;;;;;;;;
2022/06/25 22:16:44;;;;;;;;;;;;;;;;;;;;;
2022/06/25 22:21:44;;;;;;;;;;;;;;;;;;;;;
2022/06/25 22:26:43;;;;;;;;;;;;;;;;;;;;;
2022/06/25 22:27:03;;;;;;;4.9;2.3;;;;;;;;;;;;;-80
2022/06/25 22:31:42;;;;;;;;;;;;;;;;;;;;;
2022/06/25 22:36:42;;;;;;;;;;;;;;;;;;;;;
2022/06/25 22:41:42;;;;;;;;;;;;;;;;;;;;;
2022/06/25 22:46:42;;;;;;;;;;;;;;;;;;;;;
2022/06/25 22:51:45;;;;;;;;;;;;;;;;;;;;;
2022/06/25 22:56:45;;;;;;;;;;;;;;;;;;;;;
2022/06/25 22:57:09;;;;;;;;;;;;;;;18.7;57.63672;101229;;;;-79
2022/06/25 22:57:20;;;;;;;6.4;2.4;;;;;;;;;;;;;-79
2022/06/25 22:59:49;;;;;;;;;;;;;;;18.5;57.93945;101233.8;;;;-82
2022/06/25 23:04:50;;;;;;;;;;;;;;;18.49;58.14063;101228;;;;-81
2022/06/25 23:09:47;;;;;;;;;;;;;;;18.47;58.06055;101241.1;;;;-83
2022/06/25 23:14:51;;;;;;;;;;;;;;;18.45;58.28516;101258.1;;;;-82
2022/06/25 23:19:47;;;;;;;;;;;;;;;18.43;58.80273;101269.3;;;;-80
2022/06/25 23:24:47;;;;;;;;;;;;;;;18.39;58.89941;101265.6;;;;-81
2022/06/25 23:27:08;;;;;;;5.3;2.8;;;;;;;;;;;;;-81
2022/06/25 23:29:47;;;;;;;;;;;;;;;18.36;59.16895;101263.8;;;;-82
2022/06/25 23:34:55;;;;;;;;;;;;;;;18.35;59.15625;101266.3;;;;-81
2022/06/25 23:39:53;;;;;;;;;;;;;;;18.35;59.18848;101269.6;;;;-82
2022/06/25 23:44:47;;;;;;;;;;;;;;;18.33;59.03906;101258.8;;;;-80
2022/06/25 23:49:47;;;;;;;;;;;;;;;18.31;59.12891;101249.9;;;;-82
2022/06/25 23:54:54;;;;;;;;;;;;;;;18.31;59.10449;101254.6;;;;-81
2022/06/25 23:57:15;;;;;;;6.8;3;;;;;;;;;;;;;-81
2022/06/25 23:59:47;;;;;;;;;;;;;;;18.3;59.20703;101251.4;;;;-80
